Time;durP1;ratioP1;P1;durP2;ratioP2;P2;SDS_P1;SDS_P2;PMS_P1;PMS_P2;Temp;Humidity;BMP_temperature;BMP_pressure;BME280_temperature;BME280_humidity;BME280_pressure;Samples;Min_cycle;Max_cycle;Signal;HPM_P1;HPM_P2
2022/03/18 00:02:17;;;;;;;6.88;1.83;;;;;;;4.43;95.24;103078.69;4991747;28;20243;-60
2022/03/18 00:04:43;;;;;;;3.42;1.67;;;;;;;4.42;95.68;103084.28;5010165;28;20121;-60
2022/03/18 00:07:08;;;;;;;2.92;1.52;;;;;;;4.42;95.44;103095.75;5012000;28;20117;-60
2022/03/18 00:09:34;;;;;;;7.63;2.00;;;;;;;4.40;95.74;103094.41;5011670;28;20038;-58
2022/03/18 00:12:00;;;;;;;2.92;1.73;;;;;;;4.38;95.38;103086.66;5008637;28;20164;-57
2022/03/18 00:14:25;;;;;;;5.72;1.83;;;;;;;4.33;95.43;103097.28;5003936;28;20029;-59
2022/03/18 00:16:51;;;;;;;2.30;1.73;;;;;;;4.31;95.27;103099.41;4992866;28;20101;-59
2022/03/18 00:19:17;;;;;;;5.63;2.08;;;;;;;4.26;95.81;103098.50;4996643;28;20030;-59
2022/03/18 00:21:43;;;;;;;5.47;2.00;;;;;;;4.24;96.05;103104.09;5006012;28;20124;-60
2022/03/18 00:24:08;;;;;;;3.55;1.98;;;;;;;4.25;95.99;103104.91;5005862;28;20049;-57
2022/03/18 00:26:33;;;;;;;3.92;1.65;;;;;;;4.25;95.66;103108.41;5011909;28;20038;-57
2022/03/18 00:29:00;;;;;;;3.10;2.53;;;;;;;4.24;95.88;103119.31;5005188;28;20177;-60
2022/03/18 00:31:26;;;;;;;2.70;1.55;;;;;;;4.20;95.99;103116.31;5003603;28;20041;-58
2022/03/18 00:33:51;;;;;;;5.68;2.05;;;;;;;4.19;96.21;103120.06;5006379;28;20497;-59
2022/03/18 00:36:17;;;;;;;2.83;1.63;;;;;;;4.17;95.79;103113.38;4992874;28;20074;-60
2022/03/18 00:38:43;;;;;;;3.70;1.80;;;;;;;4.15;95.83;103107.47;5011009;28;20468;-59
2022/03/18 00:41:08;;;;;;;3.20;1.73;;;;;;;4.09;95.55;103113.81;5009290;28;20152;-57
2022/03/18 00:43:34;;;;;;;3.03;1.67;;;;;;;4.08;95.04;103118.34;5008460;28;20038;-60
2022/03/18 00:45:59;;;;;;;2.50;1.60;;;;;;;4.04;95.50;103116.44;4994629;28;20503;-60
2022/03/18 00:53:54;;;;;;;3.33;1.40;;;;;;;3.97;95.09;103107.81;5011965;28;20408;-57
2022/03/18 00:56:19;;;;;;;1.75;1.65;;;;;;;3.95;95.64;103107.28;5011147;28;20034;-61
2022/03/18 00:58:45;;;;;;;4.32;1.73;;;;;;;3.97;95.64;103107.81;5001867;28;20042;-58
2022/03/18 01:01:11;;;;;;;3.75;1.45;;;;;;;3.97;95.66;103108.59;5006651;28;20076;-58
2022/03/18 01:03:37;;;;;;;10.00;2.10;;;;;;;3.95;96.14;103105.38;5000677;28;20069;-59
2022/03/18 01:06:02;;;;;;;5.18;2.20;;;;;;;3.91;95.39;103101.59;5010393;28;20025;-59
2022/03/18 01:08:28;;;;;;;2.35;1.88;;;;;;;3.86;95.56;103103.41;5011628;28;20316;-59
2022/03/18 01:10:54;;;;;;;3.60;1.58;;;;;;;3.83;95.75;103104.75;5005576;28;20032;-59
2022/03/18 01:13:20;;;;;;;3.13;1.65;;;;;;;3.80;95.37;103109.72;5011603;28;20038;-57
2022/03/18 01:15:46;;;;;;;4.25;1.52;;;;;;;3.80;95.91;103099.88;5012153;28;20108;-60
2022/03/18 01:18:11;;;;;;;2.72;1.60;;;;;;;3.82;96.01;103110.28;5009986;28;20451;-59
2022/03/18 01:20:37;;;;;;;2.03;1.58;;;;;;;3.82;96.23;103111.09;5000327;28;20032;-60
2022/03/18 01:23:06;;;;;;;2.58;1.38;;;;;;;3.78;96.47;103120.66;5003570;28;20439;-60
2022/03/18 01:25:35;;;;;;;2.55;1.58;;;;;;;3.76;96.05;103136.06;5003273;28;20058;-60
2022/03/18 01:28:06;;;;;;;2.72;1.90;;;;;;;3.76;95.70;103148.56;4991218;28;20034;-60
2022/03/18 01:30:32;;;;;;;1.73;0.95;;;;;;;3.73;96.42;103138.44;5007180;28;20389;-55
2022/03/18 01:33:01;;;;;;;2.83;1.50;;;;;;;3.71;95.69;103141.34;5008977;28;20357;-57
2022/03/18 01:35:27;;;;;;;3.70;1.80;;;;;;;3.67;95.66;103133.06;5010048;28;20040;-55
2022/03/18 01:37:53;;;;;;;4.38;1.88;;;;;;;3.64;96.46;103135.38;5004814;28;20607;-54
2022/03/18 01:40:18;;;;;;;5.50;1.80;;;;;;;3.62;96.22;103132.97;5007286;28;20112;-56
2022/03/18 01:42:45;;;;;;;6.50;1.95;;;;;;;3.62;96.46;103140.97;5008652;28;20504;-57
2022/03/18 01:45:10;;;;;;;7.32;1.45;;;;;;;3.61;96.22;103147.34;5010663;28;20045;-60
2022/03/18 01:47:36;;;;;;;4.97;1.30;;;;;;;3.58;96.16;103139.03;4993347;28;20050;-60
2022/03/18 01:50:02;;;;;;;3.78;1.77;;;;;;;3.54;96.28;103136.03;5006276;28;20161;-59
2022/03/18 01:52:33;;;;;;;2.45;1.50;;;;;;;3.55;95.86;103134.19;4973674;28;20125;-56
2022/03/18 01:54:59;;;;;;;;;;;;;;;3.51;96.60;103139.22;4993204;28;20430;-58
2022/03/18 01:57:26;;;;;;;1.95;1.08;;;;;;;3.53;96.14;103136.31;4991185;28;20047;-59
2022/03/18 01:59:54;;;;;;;3.28;1.33;;;;;;;3.49;96.80;103148.50;5005575;28;20026;-60
2022/03/18 02:02:20;;;;;;;12.55;1.75;;;;;;;3.46;96.86;103147.16;5010205;28;20476;-60
2022/03/18 02:04:46;;;;;;;1.05;0.88;;;;;;;3.48;96.20;103153.00;5007004;28;20034;-60
2022/03/18 02:07:13;;;;;;;1.65;1.50;;;;;;;3.49;96.53;103149.31;5034392;28;20187;-60
2022/03/18 02:09:39;;;;;;;2.83;1.10;;;;;;;3.44;96.84;103149.25;5009494;28;20030;-58
2022/03/18 02:12:07;;;;;;;1.92;1.40;;;;;;;3.45;97.05;103150.03;5007343;28;20273;-59
2022/03/18 02:14:34;;;;;;;5.95;1.65;;;;;;;3.44;97.16;103153.75;4985895;28;20069;-60
2022/03/18 02:17:01;;;;;;;5.68;1.95;;;;;;;3.43;97.25;103157.47;4999515;28;20345;-59
2022/03/18 02:19:27;;;;;;;5.05;1.38;;;;;;;3.44;97.13;103159.91;5016406;28;20025;-59
2022/03/18 02:21:55;;;;;;;4.32;1.73;;;;;;;3.43;97.18;103166.25;4996582;28;20120;-56
2022/03/18 02:24:21;;;;;;;5.50;1.70;;;;;;;3.43;97.41;103168.91;5006411;28;20030;-54
2022/03/18 02:26:52;;;;;;;2.15;1.50;;;;;;;3.43;97.52;103176.09;5020702;28;20033;-55
2022/03/18 02:29:20;;;;;;;2.45;1.48;;;;;;;3.38;96.75;103179.50;5009180;28;20045;-57
2022/03/18 02:31:46;;;;;;;9.70;1.73;;;;;;;3.36;96.86;103181.59;4998361;28;20088;-58
2022/03/18 02:34:12;;;;;;;3.33;1.55;;;;;;;3.35;97.37;103185.31;5027615;28;20173;-57
2022/03/18 02:36:37;;;;;;;1.58;1.10;;;;;;;3.36;97.56;103186.94;5002678;28;20497;-60
2022/03/18 02:39:04;;;;;;;3.33;1.52;;;;;;;3.35;97.28;103176.50;5011135;28;20034;-59
2022/03/18 02:41:30;;;;;;;5.53;1.45;;;;;;;3.29;97.18;103185.50;5010399;28;20033;-57
2022/03/18 02:43:56;;;;;;;2.40;1.27;;;;;;;3.29;97.76;103191.59;5014979;28;20087;-58
2022/03/18 02:46:22;;;;;;;1.48;1.20;;;;;;;3.26;97.17;103196.59;5003737;28;20030;-59
2022/03/18 02:48:47;;;;;;;3.90;1.55;;;;;;;3.25;97.13;103198.44;5009659;28;20486;-58
2022/03/18 02:51:14;;;;;;;2.08;1.30;;;;;;;3.26;97.99;103205.41;4995541;28;20464;-57
2022/03/18 02:53:39;;;;;;;3.40;1.52;;;;;;;3.27;97.55;103204.34;5026110;28;20042;-60
2022/03/18 02:56:07;;;;;;;3.25;1.38;;;;;;;3.23;97.88;103197.09;5013753;28;20095;-59
2022/03/18 02:58:35;;;;;;;3.97;1.42;;;;;;;3.25;97.30;103206.44;5004518;28;20038;-57
2022/03/18 03:01:01;;;;;;;4.93;1.83;;;;;;;3.21;97.77;103210.66;5014382;28;20038;-60
2022/03/18 03:03:27;;;;;;;7.85;1.60;;;;;;;3.25;97.65;103203.00;4998032;28;20034;-56
2022/03/18 03:08:37;;;;;;;1.60;1.35;;;;;;;3.21;97.65;103216.00;5015394;28;20045;-57
2022/03/18 03:11:02;;;;;;;3.05;1.60;;;;;;;3.18;98.15;103205.81;5015504;28;20049;-60
2022/03/18 03:13:28;;;;;;;4.95;1.60;;;;;;;3.17;98.03;103208.72;4997239;28;20038;-57
2022/03/18 03:15:53;;;;;;;4.47;1.85;;;;;;;3.18;97.66;103223.63;5008360;28;20034;-59
2022/03/18 03:18:19;;;;;;;3.88;2.05;;;;;;;3.15;97.39;103226.78;4998179;28;20034;-60
2022/03/18 03:20:45;;;;;;;2.42;1.48;;;;;;;3.13;98.05;103229.69;4998541;28;20424;-60
2022/03/18 03:23:10;;;;;;;2.45;1.75;;;;;;;3.12;98.04;103243.22;5002961;28;20046;-60
2022/03/18 03:25:36;;;;;;;2.45;1.60;;;;;;;3.10;97.78;103232.81;5012357;28;20083;-59
2022/03/18 03:28:01;;;;;;;3.95;1.67;;;;;;;3.09;98.15;103241.03;5008547;28;20030;-60
2022/03/18 03:30:27;;;;;;;3.30;1.60;;;;;;;3.09;97.67;103249.84;5010335;28;20117;-59
2022/03/18 03:32:53;;;;;;;13.07;1.45;;;;;;;3.11;98.44;103247.75;5005266;28;20061;-59
2022/03/18 03:35:18;;;;;;;3.08;1.85;;;;;;;3.09;98.36;103241.03;4997044;28;20038;-58
2022/03/18 03:37:44;;;;;;;2.75;1.52;;;;;;;3.08;98.40;103247.44;5003514;28;20038;-59
2022/03/18 03:40:14;;;;;;;3.03;1.73;;;;;;;3.08;98.19;103247.44;5000377;28;20429;-59
2022/03/18 03:42:41;;;;;;;4.68;1.40;;;;;;;3.04;97.79;103240.97;5005471;28;20049;-59
2022/03/18 03:45:09;;;;;;;2.50;1.52;;;;;;;3.04;98.67;103251.63;4997917;28;20410;-59
2022/03/18 03:47:35;;;;;;;2.22;1.30;;;;;;;3.03;98.66;103250.81;4987940;28;20121;-59
2022/03/18 03:50:00;;;;;;;10.68;1.80;;;;;;;3.03;98.05;103244.66;5008014;28;20491;-58
2022/03/18 03:52:26;;;;;;;2.67;1.42;;;;;;;3.02;98.47;103251.03;5008787;28;20044;-58
2022/03/18 03:54:51;;;;;;;2.17;1.20;;;;;;;2.98;98.33;103257.88;5010242;28;20046;-59
2022/03/18 03:57:17;;;;;;;8.18;1.42;;;;;;;2.98;98.12;103265.88;4996407;28;20041;-57
2022/03/18 03:59:42;;;;;;;2.28;1.60;;;;;;;2.97;98.96;103264.25;5006583;28;20033;-56
2022/03/18 04:02:08;;;;;;;3.25;1.67;;;;;;;2.92;98.43;103264.97;5000800;28;20552;-59
2022/03/18 04:04:34;;;;;;;3.08;1.90;;;;;;;2.91;98.20;103266.00;5003461;28;20057;-58
2022/03/18 04:06:59;;;;;;;2.78;1.48;;;;;;;2.92;98.02;103275.63;5001227;28;20511;-59
2022/03/18 04:09:25;;;;;;;3.60;1.65;;;;;;;2.88;98.51;103287.78;4983788;28;20030;-58
2022/03/18 04:11:50;;;;;;;7.07;2.22;;;;;;;2.86;98.64;103281.88;4996041;28;20263;-59
2022/03/18 04:14:16;;;;;;;5.65;2.13;;;;;;;2.87;98.87;103280.84;4992927;28;20484;-59
2022/03/18 04:16:41;;;;;;;3.40;2.13;;;;;;;2.89;98.87;103281.41;5004319;28;20065;-60
2022/03/18 04:19:07;;;;;;;6.57;2.55;;;;;;;2.91;98.46;103284.63;5001278;28;20704;-57
2022/03/18 04:21:32;;;;;;;2.42;1.80;;;;;;;2.89;98.80;103284.06;4992300;28;20041;-58
2022/03/18 04:23:57;;;;;;;8.63;2.17;;;;;;;2.87;98.17;103288.81;5001483;28;20563;-59
2022/03/18 04:26:23;;;;;;;5.30;1.75;;;;;;;2.85;98.34;103295.41;4998217;28;20038;-59
2022/03/18 04:28:48;;;;;;;2.05;1.60;;;;;;;2.84;98.48;103294.63;4986987;28;20030;-60
2022/03/18 04:31:14;;;;;;;2.75;1.45;;;;;;;2.83;98.70;103303.63;5000858;28;20093;-60
2022/03/18 04:33:39;;;;;;;7.00;1.33;;;;;;;2.82;99.14;103311.84;4978218;28;20034;-60
2022/03/18 04:36:05;;;;;;;1.40;1.08;;;;;;;2.79;98.82;103307.81;5020846;28;20607;-60
2022/03/18 04:38:30;;;;;;;1.27;0.90;;;;;;;2.75;98.67;103309.31;5010219;28;20042;-59
2022/03/18 04:40:56;;;;;;;3.40;2.15;;;;;;;2.74;98.65;103313.03;5011113;28;20029;-60
2022/03/18 04:43:21;;;;;;;3.25;1.92;;;;;;;2.76;98.76;103318.94;5010552;28;20649;-57
2022/03/18 04:45:47;;;;;;;8.82;1.73;;;;;;;2.73;98.49;103311.41;5007510;28;20033;-60
2022/03/18 04:48:12;;;;;;;4.95;1.70;;;;;;;2.73;98.73;103314.06;5009374;28;20088;-59
2022/03/18 04:50:38;;;;;;;5.20;2.03;;;;;;;2.73;98.90;103320.19;5003680;28;20470;-56
2022/03/18 04:53:03;;;;;;;2.45;1.60;;;;;;;2.74;98.99;103321.84;5007543;28;20034;-55
2022/03/18 04:55:29;;;;;;;1.63;1.42;;;;;;;2.77;98.57;103319.75;5009835;28;20400;-60
2022/03/18 04:57:54;;;;;;;1.75;1.10;;;;;;;2.73;98.47;103324.72;4996198;28;20115;-60
2022/03/18 05:00:24;;;;;;;2.33;1.50;;;;;;;2.69;99.05;103324.38;5007852;28;20370;-60
2022/03/18 05:02:53;;;;;;;3.72;1.83;;;;;;;2.70;99.05;103333.16;4974878;28;20064;-60
2022/03/18 05:05:20;;;;;;;2.58;1.70;;;;;;;2.69;99.09;103324.38;4977669;22;21691;-58
2022/03/18 05:07:50;;;;;;;2.97;1.42;;;;;;;2.70;98.54;103341.16;5004204;28;20056;-60
2022/03/18 05:10:15;;;;;;;3.53;2.03;;;;;;;2.70;98.54;103330.50;4995445;28;20060;-63
2022/03/18 05:12:41;;;;;;;3.63;1.95;;;;;;;2.70;99.06;103346.47;4972237;28;20509;-58
2022/03/18 05:15:08;;;;;;;4.72;1.60;;;;;;;2.68;99.10;103348.56;4974979;28;20121;-60
2022/03/18 05:17:34;;;;;;;1.48;1.27;;;;;;;2.66;99.41;103350.63;4989947;28;20034;-61
2022/03/18 05:20:00;;;;;;;1.95;1.27;;;;;;;2.67;99.21;103358.38;4962076;28;20033;-64
2022/03/18 05:22:26;;;;;;;3.08;1.58;;;;;;;2.65;99.22;103360.47;4953210;28;20053;-60
2022/03/18 05:24:52;;;;;;;5.22;1.48;;;;;;;2.67;99.38;103374.34;4982302;28;20030;-60
2022/03/18 05:27:18;;;;;;;3.90;2.03;;;;;;;2.66;99.63;103383.38;4987332;28;20038;-63
2022/03/18 05:29:44;;;;;;;2.63;1.60;;;;;;;2.66;99.66;103386.03;4994645;28;20092;-63
2022/03/18 05:32:11;;;;;;;4.53;1.70;;;;;;;2.66;99.70;103396.66;4990694;28;20042;-62
2022/03/18 05:34:37;;;;;;;3.08;1.95;;;;;;;2.67;99.11;103392.94;4989414;28;20045;-63
2022/03/18 05:37:05;;;;;;;2.33;1.88;;;;;;;2.67;99.63;103406.25;4983039;28;20501;-60
2022/03/18 05:39:32;;;;;;;5.13;1.38;;;;;;;2.70;99.92;103411.13;4970341;28;20041;-62
2022/03/18 05:41:57;;;;;;;1.75;1.42;;;;;;;2.72;100.00;103408.22;4986955;28;20049;-61
2022/03/18 05:44:23;;;;;;;2.85;1.85;;;;;;;2.78;100.00;103407.28;4985005;28;20042;-61
2022/03/18 05:46:49;;;;;;;2.97;2.35;;;;;;;2.88;100.00;103414.66;4969398;28;20030;-64
2022/03/18 05:49:14;;;;;;;4.57;1.80;;;;;;;2.94;100.00;103411.91;4988986;28;20038;-62
2022/03/18 05:51:40;;;;;;;5.68;2.13;;;;;;;2.90;100.00;103418.72;4988314;28;20519;-60
2022/03/18 05:54:06;;;;;;;4.03;1.70;;;;;;;2.89;100.00;103430.41;4970589;28;20106;-57
2022/03/18 05:59:17;;;;;;;6.88;3.28;;;;;;;2.92;100.00;103432.59;4955948;28;20026;-59
2022/03/18 06:01:43;;;;;;;4.53;2.80;;;;;;;2.99;100.00;103425.28;4991281;28;20043;-62
2022/03/18 06:04:10;;;;;;;5.20;3.03;;;;;;;3.00;100.00;103434.88;4982668;28;20065;-58
2022/03/18 06:06:40;;;;;;;6.63;2.88;;;;;;;3.00;100.00;103445.53;4989796;28;20137;-60
2022/03/18 06:11:53;;;;;;;7.65;4.22;;;;;;;3.06;100.00;103446.47;4987378;28;20034;-60
2022/03/18 06:14:23;;;;;;;7.32;3.47;;;;;;;3.08;100.00;103447.03;4972658;28;20057;-58
2022/03/18 06:16:52;;;;;;;9.23;3.83;;;;;;;3.12;100.00;103450.81;4969912;28;20455;-61
2022/03/18 06:19:20;;;;;;;9.32;3.65;;;;;;;3.17;100.00;103448.28;4988268;28;20025;-63
2022/03/18 06:21:46;;;;;;;7.43;3.85;;;;;;;3.24;100.00;103456.94;4983608;28;20049;-63
2022/03/18 06:24:13;;;;;;;8.63;3.70;;;;;;;3.35;100.00;103461.41;4984787;28;20113;-56
2022/03/18 06:26:39;;;;;;;9.05;3.53;;;;;;;3.43;100.00;103455.69;4998557;28;20034;-59
2022/03/18 06:29:05;;;;;;;11.93;3.13;;;;;;;3.50;100.00;103453.72;4993033;28;20038;-64
2022/03/18 06:31:32;;;;;;;6.38;2.78;;;;;;;3.56;100.00;103458.91;4979101;28;20038;-60
2022/03/18 06:33:58;;;;;;;5.57;2.90;;;;;;;3.64;100.00;103463.84;4990019;28;20460;-64
2022/03/18 06:36:24;;;;;;;1.88;1.73;;;;;;;3.72;100.00;103472.53;4965097;28;20026;-64
2022/03/18 06:38:49;;;;;;;7.65;2.25;;;;;;;3.78;100.00;103474.19;4990640;28;20129;-60
2022/03/18 06:41:16;;;;;;;4.15;2.10;;;;;;;3.85;100.00;103467.69;4990238;28;20060;-57
2022/03/18 06:43:42;;;;;;;3.13;1.58;;;;;;;3.88;100.00;103477.88;4975451;28;20085;-61
2022/03/18 06:46:08;;;;;;;1.48;1.23;;;;;;;3.93;100.00;103480.63;4985002;28;20053;-58
2022/03/18 06:48:33;;;;;;;2.05;1.52;;;;;;;3.95;100.00;103483.06;4974544;28;20549;-59
2022/03/18 06:51:00;;;;;;;2.63;1.45;;;;;;;4.01;100.00;103484.75;4978188;28;20031;-60
2022/03/18 06:53:26;;;;;;;5.72;2.25;;;;;;;4.04;100.00;103481.63;4967207;28;20038;-63
2022/03/18 06:55:52;;;;;;;3.80;1.63;;;;;;;4.11;100.00;103488.41;4991486;28;20296;-59
2022/03/18 06:58:18;;;;;;;6.53;2.00;;;;;;;4.15;100.00;103480.72;4990816;28;20027;-62
2022/03/18 07:00:43;;;;;;;4.03;1.52;;;;;;;4.18;100.00;103482.94;4957025;28;20046;-59
2022/03/18 07:03:09;;;;;;;4.72;1.80;;;;;;;4.29;100.00;103484.69;4993128;28;20058;-60
2022/03/18 07:05:34;;;;;;;4.40;1.17;;;;;;;4.34;100.00;103484.78;4965226;28;20112;-60
2022/03/18 07:08:00;;;;;;;2.30;1.70;;;;;;;4.36;100.00;103486.16;4971239;28;20120;-61
2022/03/18 07:10:26;;;;;;;3.15;1.40;;;;;;;4.48;100.00;103492.22;4995429;28;20034;-61
2022/03/18 07:12:51;;;;;;;3.05;1.58;;;;;;;4.51;100.00;103498.91;4986911;28;20042;-63
2022/03/18 07:15:17;;;;;;;3.03;1.60;;;;;;;4.57;100.00;103513.94;4991330;28;20041;-60
2022/03/18 07:17:55;;;;;;;4.60;1.70;;;;;;;4.63;100.00;103504.19;4997205;28;20037;-58
2022/03/18 07:20:22;;;;;;;3.92;1.70;;;;;;;4.68;100.00;103501.59;4988966;28;20030;-64
2022/03/18 07:23:13;;;;;;;2.72;1.40;;;;;;;4.77;100.00;103506.25;4967250;28;20038;-60
2022/03/18 07:25:48;;;;;;;1.58;1.23;;;;;;;4.86;100.00;103510.13;4981135;28;20105;-61
2022/03/18 07:28:15;;;;;;;1.98;1.20;;;;;;;4.92;100.00;103511.81;4985450;28;20039;-63
2022/03/18 07:30:43;;;;;;;1.83;1.25;;;;;;;4.99;100.00;103506.31;4983811;28;20065;-60
2022/03/18 07:33:09;;;;;;;2.50;1.58;;;;;;;5.02;100.00;103511.97;4981730;28;20042;-63
2022/03/18 07:35:36;;;;;;;3.10;1.98;;;;;;;5.08;100.00;103516.31;4979450;28;20053;-55
2022/03/18 07:38:03;;;;;;;6.45;2.97;;;;;;;5.12;100.00;103525.44;4996850;28;20038;-64
2022/03/18 07:40:29;;;;;;;4.50;1.50;;;;;;;5.17;100.00;103528.19;5002989;28;20116;-63
2022/03/18 07:42:56;;;;;;;2.03;1.33;;;;;;;5.23;100.00;103529.03;5010922;28;20128;-63
2022/03/18 07:45:26;;;;;;;6.10;1.67;;;;;;;5.26;100.00;103534.72;4992006;28;20453;-57
2022/03/18 07:47:53;;;;;;;4.30;1.88;;;;;;;5.35;100.00;103527.06;4977551;28;20088;-60
2022/03/18 07:50:20;;;;;;;2.90;1.90;;;;;;;5.36;100.00;103536.72;4970813;28;20235;-62
2022/03/18 07:52:50;;;;;;;4.30;2.13;;;;;;;5.40;100.00;103543.97;4988665;28;20472;-63
2022/03/18 07:55:20;;;;;;;3.65;1.95;;;;;;;5.42;100.00;103539.19;4989691;28;20038;-65
2022/03/18 07:57:46;;;;;;;7.30;2.20;;;;;;;5.39;100.00;103555.72;4983944;28;20045;-59
2022/03/18 08:00:13;;;;;;;6.75;1.88;;;;;;;5.43;100.00;103550.69;4972091;28;20035;-61
2022/03/18 08:02:50;;;;;;;3.63;2.20;;;;;;;5.42;100.00;103541.88;4982986;28;20057;-60
2022/03/18 08:05:17;;;;;;;7.63;1.52;;;;;;;5.45;100.00;103548.59;4993086;28;20128;-62
2022/03/18 08:07:44;;;;;;;4.43;1.92;;;;;;;5.49;100.00;103550.53;4984998;28;20030;-61
2022/03/18 08:10:10;;;;;;;7.43;2.00;;;;;;;5.57;100.00;103554.63;4985231;28;20038;-65
2022/03/18 08:12:38;;;;;;;7.80;2.40;;;;;;;5.65;100.00;103542.69;4986068;28;20061;-57
2022/03/18 08:15:06;;;;;;;4.57;2.38;;;;;;;5.63;100.00;103542.94;4975430;28;20160;-60
2022/03/18 08:17:32;;;;;;;3.42;2.08;;;;;;;5.67;100.00;103552.03;4985360;28;20039;-59
2022/03/18 08:20:01;;;;;;;5.07;2.33;;;;;;;5.70;100.00;103559.56;4973700;28;20430;-63
2022/03/18 08:22:27;;;;;;;6.53;2.47;;;;;;;5.70;100.00;103556.09;4969955;28;20379;-57
2022/03/18 08:24:52;;;;;;;9.95;2.78;;;;;;;5.74;100.00;103566.03;4990818;28;20042;-59
2022/03/18 08:27:19;;;;;;;4.13;2.08;;;;;;;5.75;100.00;103564.19;4971592;28;20101;-60
2022/03/18 08:29:48;;;;;;;6.95;2.65;;;;;;;5.78;100.00;103569.84;4991801;28;20026;-59
2022/03/18 08:32:15;;;;;;;4.30;2.22;;;;;;;5.83;100.00;103579.75;4993909;28;20048;-59
2022/03/18 08:34:42;;;;;;;3.78;3.13;;;;;;;6.02;100.00;103592.59;4983565;28;20053;-63
2022/03/18 08:37:08;;;;;;;3.72;1.80;;;;;;;6.05;100.00;103596.63;4985022;28;20493;-58
2022/03/18 08:39:34;;;;;;;6.55;2.10;;;;;;;6.11;100.00;103609.00;4998788;28;20092;-59
2022/03/18 08:42:00;;;;;;;7.20;3.08;;;;;;;6.14;100.00;103621.88;4989573;28;20053;-59
2022/03/18 08:44:26;;;;;;;3.50;2.00;;;;;;;6.15;100.00;103623.50;4990595;28;20489;-55
2022/03/18 08:46:52;;;;;;;5.55;1.85;;;;;;;6.25;100.00;103626.28;4986574;28;20046;-62
2022/03/18 08:49:17;;;;;;;3.20;2.28;;;;;;;6.42;100.00;103637.69;4998441;28;20036;-61
2022/03/18 08:51:43;;;;;;;3.97;2.03;;;;;;;6.46;100.00;103636.13;4987277;28;20034;-60
2022/03/18 08:54:08;;;;;;;3.78;2.42;;;;;;;6.53;100.00;103635.91;4989460;28;20065;-57
2022/03/18 08:56:34;;;;;;;6.53;2.40;;;;;;;6.57;100.00;103629.81;4987454;28;20066;-61
2022/03/18 08:59:03;;;;;;;6.15;2.75;;;;;;;6.73;100.00;103630.75;4981755;28;20512;-59
2022/03/18 09:01:29;;;;;;;6.00;3.00;;;;;;;6.80;100.00;103652.75;5000657;28;20400;-59
2022/03/18 09:03:54;;;;;;;5.03;2.90;;;;;;;6.94;100.00;103656.63;4999799;28;20041;-62
2022/03/18 09:06:20;;;;;;;4.50;2.10;;;;;;;7.17;100.00;103654.41;4988220;28;20404;-62
2022/03/18 09:08:45;;;;;;;4.93;2.67;;;;;;;7.45;100.00;103650.59;5000934;28;20038;-63
2022/03/18 09:11:11;;;;;;;6.93;2.55;;;;;;;7.80;100.00;103652.66;4985533;28;20046;-61
2022/03/18 09:13:37;;;;;;;3.97;2.38;;;;;;;8.10;100.00;103647.38;4997083;28;20035;-60
2022/03/18 09:16:04;;;;;;;6.25;2.45;;;;;;;8.44;100.00;103653.94;4986452;28;20026;-61
2022/03/18 09:18:30;;;;;;;5.82;2.33;;;;;;;8.78;100.00;103646.19;4977121;28;20049;-65
2022/03/18 09:20:56;;;;;;;10.07;3.30;;;;;;;9.06;99.11;103651.81;4981600;28;20041;-58
2022/03/18 09:23:21;;;;;;;4.88;2.70;;;;;;;9.23;96.55;103656.13;4996856;28;20042;-60
2022/03/18 09:25:47;;;;;;;4.18;2.53;;;;;;;9.48;96.88;103658.75;5003535;28;20113;-62
2022/03/18 09:28:12;;;;;;;5.20;2.28;;;;;;;9.84;94.94;103669.16;4971579;28;20122;-59
2022/03/18 09:30:39;;;;;;;7.90;2.70;;;;;;;10.42;92.27;103667.53;4986362;28;20105;-63
2022/03/18 09:33:04;;;;;;;5.45;1.73;;;;;;;10.66;88.67;103681.13;4987609;28;20464;-60
2022/03/18 09:35:31;;;;;;;3.75;2.13;;;;;;;10.89;87.55;103686.63;4989578;28;20065;-60
2022/03/18 09:37:56;;;;;;;6.15;2.40;;;;;;;11.23;85.10;103689.28;4980552;28;20066;-63
2022/03/18 09:40:22;;;;;;;7.78;2.22;;;;;;;11.61;82.70;103699.16;4967453;28;20042;-62
2022/03/18 09:43:04;;;;;;;5.47;1.80;;;;;;;11.73;80.60;103694.19;4951382;28;20034;-60
2022/03/18 09:45:34;;;;;;;6.78;2.17;;;;;;;11.70;80.48;103710.16;4975976;28;20493;-64
2022/03/18 09:48:03;;;;;;;3.72;1.63;;;;;;;11.86;78.94;103718.91;4988025;28;20030;-63
2022/03/18 09:50:29;;;;;;;2.22;1.83;;;;;;;11.76;79.02;103707.13;4986431;28;20034;-64
2022/03/18 09:52:55;;;;;;;3.35;1.92;;;;;;;11.79;79.84;103709.25;4993406;28;20102;-62
2022/03/18 09:55:21;;;;;;;5.05;2.15;;;;;;;12.04;77.96;103718.94;4986744;28;20034;-63
2022/03/18 09:57:46;;;;;;;6.57;2.30;;;;;;;12.01;77.59;103724.13;4995429;28;20026;-60
2022/03/18 10:00:13;;;;;;;2.55;1.65;;;;;;;11.98;77.98;103714.69;4992881;28;20038;-64
2022/03/18 10:02:40;;;;;;;4.78;1.95;;;;;;;12.03;77.64;103719.25;4987410;28;20082;-63
2022/03/18 10:05:15;;;;;;;6.63;2.20;;;;;;;11.86;77.82;103727.00;4997787;28;20085;-63
2022/03/18 10:07:53;;;;;;;5.15;1.95;;;;;;;11.91;78.53;103713.44;4999272;28;20124;-64
2022/03/18 10:10:19;;;;;;;7.80;2.35;;;;;;;11.91;79.13;103708.84;4958988;28;20027;-62
2022/03/18 10:12:47;;;;;;;4.20;2.22;;;;;;;11.85;78.38;103715.41;5000385;28;20041;-61
2022/03/18 10:15:26;;;;;;;2.72;1.67;;;;;;;11.85;78.94;103707.28;4999096;28;20428;-61
2022/03/18 10:17:57;;;;;;;4.10;2.20;;;;;;;12.00;79.35;103717.91;4984039;28;20038;-61
2022/03/18 10:20:43;;;;;;;6.20;2.47;;;;;;;12.23;78.97;103722.47;5005704;28;20037;-61
2022/03/18 10:23:14;;;;;;;4.47;1.90;;;;;;;12.38;79.19;103732.31;5002836;28;20029;-62
2022/03/18 10:25:50;;;;;;;5.07;1.98;;;;;;;12.26;77.85;103721.91;4999287;28;20041;-60
2022/03/18 10:28:40;;;;;;;4.10;2.42;;;;;;;12.56;77.62;103713.38;4994753;28;20121;-61
2022/03/18 10:31:16;;;;;;;7.38;2.65;;;;;;;12.40;76.54;103722.00;4971646;28;20035;-62
2022/03/18 10:39:31;;;;;;;5.15;2.00;;;;;;;12.48;78.71;103729.47;4972285;28;20118;-61
2022/03/18 10:42:02;;;;;;;7.00;2.30;;;;;;;12.51;77.97;103739.69;4964537;28;20165;-61
2022/03/18 10:44:48;;;;;;;4.25;2.10;;;;;;;12.52;77.14;103722.41;4987428;28;20046;-61
2022/03/18 10:47:34;;;;;;;4.65;1.92;;;;;;;12.52;76.65;103722.41;4971566;28;20219;-61
2022/03/18 10:50:11;;;;;;;13.05;2.45;;;;;;;12.53;77.74;103730.19;4988436;28;20061;-61
2022/03/18 10:52:38;;;;;;;5.60;2.05;;;;;;;12.69;77.46;103728.91;4983603;28;20034;-64
2022/03/18 10:55:20;;;;;;;4.30;1.88;;;;;;;12.86;76.71;103727.56;4984669;28;20077;-64
2022/03/18 10:58:08;;;;;;;5.68;2.15;;;;;;;12.83;75.78;103733.56;4996244;28;20034;-64
2022/03/18 11:00:42;;;;;;;6.35;2.60;;;;;;;12.89;76.30;103730.47;4979938;28;20396;-65
2022/03/18 11:03:07;;;;;;;5.13;2.58;;;;;;;12.95;77.19;103723.09;4994001;28;20064;-62
2022/03/18 11:05:45;;;;;;;5.07;2.55;;;;;;;12.95;76.13;103720.41;5006621;22;20034;-60
2022/03/18 11:08:14;;;;;;;7.80;2.70;;;;;;;12.87;75.71;103715.66;5010457;28;20646;-60
2022/03/18 11:13:39;;;;;;;4.25;2.38;;;;;;;12.92;74.86;103734.50;4996035;28;20030;-59
2022/03/18 11:16:05;;;;;;;5.18;2.60;;;;;;;12.94;74.62;103730.41;4975467;28;20590;-59
2022/03/18 11:18:31;;;;;;;10.05;2.75;;;;;;;13.04;74.04;103724.06;4980454;28;20047;-59
2022/03/18 11:21:00;;;;;;;5.57;2.45;;;;;;;13.04;73.40;103730.28;4966558;28;20038;-60
2022/03/18 11:23:26;;;;;;;5.45;2.67;;;;;;;13.07;74.00;103731.56;4992301;28;20409;-60
2022/03/18 11:25:56;;;;;;;4.05;2.35;;;;;;;13.19;74.16;103735.44;4991456;28;20293;-59
2022/03/18 11:28:24;;;;;;;4.30;2.28;;;;;;;13.34;73.46;103727.06;4982718;28;20038;-61
2022/03/18 11:31:10;;;;;;;6.82;2.65;;;;;;;13.51;72.68;103730.00;4995093;28;20083;-60
2022/03/18 11:33:38;;;;;;;6.20;2.67;;;;;;;13.77;71.44;103735.75;4996479;28;20304;-60
2022/03/18 11:36:11;;;;;;;4.05;2.45;;;;;;;13.76;69.96;103734.16;4975832;28;20069;-60
2022/03/18 11:38:59;;;;;;;6.90;2.63;;;;;;;13.71;68.73;103731.53;4988120;28;20036;-60
2022/03/18 11:41:26;;;;;;;6.32;2.30;;;;;;;13.74;70.29;103733.66;4982370;28;20125;-60
2022/03/18 11:43:53;;;;;;;4.75;2.50;;;;;;;13.73;69.74;103732.03;5002325;28;20034;-61
2022/03/18 11:46:22;;;;;;;6.97;2.55;;;;;;;13.76;68.88;103734.16;5003211;28;20038;-61
2022/03/18 11:48:54;;;;;;;7.63;2.33;;;;;;;13.85;70.39;103739.66;5002490;28;20084;-60
2022/03/18 11:51:26;;;;;;;6.82;2.65;;;;;;;14.09;71.06;103732.94;4995872;28;20030;-60
2022/03/18 11:53:54;;;;;;;5.25;2.45;;;;;;;14.17;70.62;103739.53;4982043;28;20036;-60